sensor_id;sensor_type;location;lat;lon;timestamp;pressure;altitude;pressure_sealevel;temperature;humidity
47710;BME280;33473;51.640;5.892;2023-04-07T00:07:13;101300;;;12.7;64.0
47710;BME280;33473;51.640;5.892;2023-04-07T00:20:33;101300;;;13.2;63.0
47710;BME280;33473;51.640;5.892;2023-04-07T00:33:52;101300;;;13.8;62.0
47710;BME280;33473;51.640;5.892;2023-04-07T00:47:12;101300;;;13.3;62.0
47710;BME280;33473;51.640;5.892;2023-04-07T01:00:32;101300;;;12.9;64.0
47710;BME280;33473;51.640;5.892;2023-04-07T01:13:52;101300;;;13.4;63.0
47710;BME280;33473;51.640;5.892;2023-04-07T01:27:11;101300;;;12.6;66.0
47710;BME280;33473;51.640;5.892;2023-04-07T01:40:31;101300;;;12.9;64.0
47710;BME280;33473;51.640;5.892;2023-04-07T01:53:51;101300;;;12.6;65.0
47710;BME280;33473;51.640;5.892;2023-04-07T02:07:10;101300;;;12.9;62.0
47710;BME280;33473;51.640;5.892;2023-04-07T02:20:30;101300;;;12.7;63.0
47710;BME280;33473;51.640;5.892;2023-04-07T02:33:50;101300;;;12.8;63.0
47710;BME280;33473;51.640;5.892;2023-04-07T02:47:09;101300;;;12.2;64.0
47710;BME280;33473;51.640;5.892;2023-04-07T03:00:29;101300;;;12.6;63.0
47710;BME280;33473;51.640;5.892;2023-04-07T03:13:49;101300;;;11.9;65.0
47710;BME280;33473;51.640;5.892;2023-04-07T03:27:08;101300;;;12.3;64.0
47710;BME280;33473;51.640;5.892;2023-04-07T03:40:28;101300;;;12.8;63.0
47710;BME280;33473;51.640;5.892;2023-04-07T03:53:48;101300;;;12.2;65.0
47710;BME280;33473;51.640;5.892;2023-04-07T04:07:07;101300;;;13.6;61.0
47710;BME280;33473;51.640;5.892;2023-04-07T04:20:27;101400;;;12.8;62.0
47710;BME280;33473;51.640;5.892;2023-04-07T04:33:47;101400;;;12.2;64.0
47710;BME280;33473;51.640;5.892;2023-04-07T04:47:06;101400;;;13.1;61.0
47710;BME280;33473;51.640;5.892;2023-04-07T05:00:26;101400;;;13.4;61.0
47710;BME280;33473;51.640;5.892;2023-04-07T05:13:46;101400;;;13.4;61.0
47710;BME280;33473;51.640;5.892;2023-04-07T05:27:05;101400;;;13.6;59.0
47710;BME280;33473;51.640;5.892;2023-04-07T05:40:25;101400;;;13.5;59.0
47710;BME280;33473;51.640;5.892;2023-04-07T05:53:45;101400;;;13.2;60.0
47710;BME280;33473;51.640;5.892;2023-04-07T06:07:04;101400;;;13.1;61.0
47710;BME280;33473;51.640;5.892;2023-04-07T06:20:24;101400;;;12.9;61.0
47710;BME280;33473;51.640;5.892;2023-04-07T06:33:44;101400;;;13.7;59.0
47710;BME280;33473;51.640;5.892;2023-04-07T06:47:03;101400;;;13.2;60.0
47710;BME280;33473;51.640;5.892;2023-04-07T07:00:23;101500;;;13.4;60.0
47710;BME280;33473;51.640;5.892;2023-04-07T07:13:43;101500;;;13.1;61.0
47710;BME280;33473;51.640;5.892;2023-04-07T07:27:02;101500;;;13.2;61.0
47710;BME280;33473;51.640;5.892;2023-04-07T07:40:22;101500;;;13.6;60.0
47710;BME280;33473;51.640;5.892;2023-04-07T07:53:42;101500;;;13.8;59.0
47710;BME280;33473;51.640;5.892;2023-04-07T08:07:01;101500;;;13.5;58.0
47710;BME280;33473;51.640;5.892;2023-04-07T08:20:21;101500;;;13.8;59.0
47710;BME280;33473;51.640;5.892;2023-04-07T08:33:41;101500;;;14.3;57.0
47710;BME280;33473;51.640;5.892;2023-04-07T08:47:01;101500;;;13.4;57.0
47710;BME280;33473;51.640;5.892;2023-04-07T09:00:20;101600;;;13.7;59.0
47710;BME280;33473;51.640;5.892;2023-04-07T09:13:40;101600;;;13.6;57.0
47710;BME280;33473;51.640;5.892;2023-04-07T09:27:00;101600;;;13.1;59.0
47710;BME280;33473;51.640;5.892;2023-04-07T09:40:19;101600;;;14.1;56.0
47710;BME280;33473;51.640;5.892;2023-04-07T09:53:39;101600;;;14.3;55.0
47710;BME280;33473;51.640;5.892;2023-04-07T10:06:59;101600;;;13.6;58.0
47710;BME280;33473;51.640;5.892;2023-04-07T10:20:18;101600;;;14.3;57.0
47710;BME280;33473;51.640;5.892;2023-04-07T10:33:38;101600;;;13.8;56.0
47710;BME280;33473;51.640;5.892;2023-04-07T10:46:58;101600;;;13.8;56.0
47710;BME280;33473;51.640;5.892;2023-04-07T11:00:17;101600;;;13.3;57.0
47710;BME280;33473;51.640;5.892;2023-04-07T11:13:37;101600;;;13.2;58.0
47710;BME280;33473;51.640;5.892;2023-04-07T11:26:57;101600;;;13.0;58.0
47710;BME280;33473;51.640;5.892;2023-04-07T11:40:16;101600;;;13.7;57.0
47710;BME280;33473;51.640;5.892;2023-04-07T11:53:36;101600;;;14.2;55.0
47710;BME280;33473;51.640;5.892;2023-04-07T12:06:56;101700;;;14.1;55.0
47710;BME280;33473;51.640;5.892;2023-04-07T12:20:16;101700;;;14.1;56.0
47710;BME280;33473;51.640;5.892;2023-04-07T12:33:35;101700;;;13.1;59.0
47710;BME280;33473;51.640;5.892;2023-04-07T12:46:55;101700;;;14.3;56.0
47710;BME280;33473;51.640;5.892;2023-04-07T13:00:15;101700;;;14.3;56.0
47710;BME280;33473;51.640;5.892;2023-04-07T13:13:34;101700;;;14.8;53.0
47710;BME280;33473;51.640;5.892;2023-04-07T13:26:54;101700;;;14.4;54.0
47710;BME280;33473;51.640;5.892;2023-04-07T13:40:14;101700;;;14.7;53.0
47710;BME280;33473;51.640;5.892;2023-04-07T13:53:33;101700;;;15.0;54.0
47710;BME280;33473;51.640;5.892;2023-04-07T14:06:53;101700;;;14.9;54.0
47710;BME280;33473;51.640;5.892;2023-04-07T14:20:13;101700;;;15.1;53.0
47710;BME280;33473;51.640;5.892;2023-04-07T14:33:32;101700;;;14.7;53.0
47710;BME280;33473;51.640;5.892;2023-04-07T14:46:52;101700;;;14.2;53.0
47710;BME280;33473;51.640;5.892;2023-04-07T15:00:12;101700;;;14.7;53.0
47710;BME280;33473;51.640;5.892;2023-04-07T15:13:31;101700;;;14.5;54.0
47710;BME280;33473;51.640;5.892;2023-04-07T15:26:51;101700;;;14.7;53.0
47710;BME280;33473;51.640;5.892;2023-04-07T15:40:11;101700;;;14.4;55.0
47710;BME280;33473;51.640;5.892;2023-04-07T15:53:30;101700;;;14.2;55.0
47710;BME280;33473;51.640;5.892;2023-04-07T16:06:50;101800;;;13.9;55.0
47710;BME280;33473;51.640;5.892;2023-04-07T16:20:10;101800;;;14.5;54.0
47710;BME280;33473;51.640;5.892;2023-04-07T16:33:30;101800;;;14.2;56.0
47710;BME280;33473;51.640;5.892;2023-04-07T16:46:49;101800;;;14.3;56.0
47710;BME280;33473;51.640;5.892;2023-04-07T17:00:09;101800;;;14.6;55.0
47710;BME280;33473;51.640;5.892;2023-04-07T17:13:29;101800;;;13.9;56.0
47710;BME280;33473;51.640;5.892;2023-04-07T17:26:48;101800;;;14.4;56.0
47710;BME280;33473;51.640;5.892;2023-04-07T17:40:08;101900;;;14.1;56.0
47710;BME280;33473;51.640;5.892;2023-04-07T17:53:28;101900;;;14.7;55.0
47710;BME280;33473;51.640;5.892;2023-04-07T18:06:47;101900;;;14.5;55.0
47710;BME280;33473;51.640;5.892;2023-04-07T18:20:07;101900;;;14.5;55.0
47710;BME280;33473;51.640;5.892;2023-04-07T18:33:27;101900;;;14.2;56.0
47710;BME280;33473;51.640;5.892;2023-04-07T18:46:46;101900;;;13.9;57.0
47710;BME280;33473;51.640;5.892;2023-04-07T19:00:06;101900;;;14.4;56.0
47710;BME280;33473;51.640;5.892;2023-04-07T19:13:26;102000;;;14.5;55.0
47710;BME280;33473;51.640;5.892;2023-04-07T19:26:45;102000;;;13.3;59.0
47710;BME280;33473;51.640;5.892;2023-04-07T19:40:05;102000;;;14.1;57.0
47710;BME280;33473;51.640;5.892;2023-04-07T19:53:24;102000;;;13.4;59.0
47710;BME280;33473;51.640;5.892;2023-04-07T20:06:44;102000;;;13.7;60.0
47710;BME280;33473;51.640;5.892;2023-04-07T20:20:04;102000;;;14.0;58.0
47710;BME280;33473;51.640;5.892;2023-04-07T20:33:23;102000;;;14.2;57.0
47710;BME280;33473;51.640;5.892;2023-04-07T20:46:43;102000;;;14.0;58.0
47710;BME280;33473;51.640;5.892;2023-04-07T21:00:03;102000;;;14.1;58.0
47710;BME280;33473;51.640;5.892;2023-04-07T21:13:23;102000;;;13.8;59.0
47710;BME280;33473;51.640;5.892;2023-04-07T21:26:42;102000;;;13.6;60.0
47710;BME280;33473;51.640;5.892;2023-04-07T21:40:02;102000;;;13.9;60.0
47710;BME280;33473;51.640;5.892;2023-04-07T21:53:22;102000;;;14.0;60.0
47710;BME280;33473;51.640;5.892;2023-04-07T22:06:41;102000;;;13.9;60.0
47710;BME280;33473;51.640;5.892;2023-04-07T22:20:01;102100;;;13.1;63.0
47710;BME280;33473;51.640;5.892;2023-04-07T22:33:21;102100;;;13.6;62.0
47710;BME280;33473;51.640;5.892;2023-04-07T22:46:40;102100;;;13.4;63.0
47710;BME280;33473;51.640;5.892;2023-04-07T23:00:00;102100;;;13.7;61.0
47710;BME280;33473;51.640;5.892;2023-04-07T23:13:20;102100;;;13.7;61.0
47710;BME280;33473;51.640;5.892;2023-04-07T23:26:39;102100;;;13.9;61.0
47710;BME280;33473;51.640;5.892;2023-04-07T23:39:59;102100;;;13.8;61.0
47710;BME280;33473;51.640;5.892;2023-04-07T23:53:19;102100;;;14.0;60.0
